createdAt,value
2018-03-29T06:07:27.194Z,97.97
2018-03-29T06:07:52.666Z,98.07
2018-03-29T06:08:18.209Z,97.97
2018-03-29T06:08:43.632Z,98.07
2018-03-29T06:09:09.120Z,98.07
2018-03-29T06:09:34.631Z,98.07
2018-03-29T06:10:00.166Z,97.97
2018-03-29T06:10:25.649Z,97.97
2018-03-29T06:10:51.125Z,98.16
2018-03-29T06:11:16.612Z,98.07
2018-03-29T06:11:42.130Z,98.25
2018-03-29T06:12:07.622Z,98.25
2018-03-29T06:12:33.163Z,98.07
2018-03-29T06:12:58.636Z,98.16
2018-03-29T06:13:24.131Z,97.97
2018-03-29T06:13:49.631Z,98.16
2018-03-29T06:14:15.097Z,98.35
2018-03-29T06:14:40.617Z,98.07
2018-03-29T06:15:06.079Z,98.16
2018-03-29T06:15:31.733Z,97.88
2018-03-29T06:15:57.228Z,98.07
2018-03-29T06:16:22.744Z,98.25
2018-03-29T06:16:48.340Z,98.35
2018-03-29T06:17:13.813Z,98.35
2018-03-29T06:17:39.339Z,98.25
2018-03-29T06:18:04.830Z,98.16
2018-03-29T06:18:30.301Z,98.07
2018-03-29T06:18:55.783Z,98.16
2018-03-29T06:19:21.286Z,97.88
2018-03-29T06:19:46.792Z,98.35
2018-03-29T06:20:12.345Z,98.54
2018-03-29T06:20:37.846Z,98.07
2018-03-29T06:21:03.350Z,98.35
2018-03-29T06:21:28.858Z,98.35
2018-03-29T06:21:54.371Z,98.35
2018-03-29T06:22:19.864Z,98.16
2018-03-29T06:22:45.340Z,97.97
2018-03-29T06:23:10.958Z,98.25
2018-03-29T06:23:36.378Z,98.16
2018-03-29T06:24:01.895Z,98.07
2018-03-29T06:24:27.433Z,97.97
2018-03-29T06:24:52.942Z,97.97
2018-03-29T06:25:18.411Z,98.16
2018-03-29T06:25:43.924Z,98.07
2018-03-29T06:26:09.447Z,98.07
2018-03-29T06:26:34.963Z,97.59
2018-03-29T06:27:00.500Z,97.78
2018-03-29T06:27:26.010Z,97.88
2018-03-29T06:27:51.494Z,97.78
2018-03-29T06:28:16.971Z,97.88
2018-03-29T06:28:42.455Z,98.16
2018-03-29T06:29:07.948Z,97.88
2018-03-29T06:29:33.416Z,97.97
2018-03-29T06:29:58.912Z,97.78
2018-03-29T06:30:24.415Z,97.78
2018-03-29T06:30:49.898Z,97.78
2018-03-29T06:31:15.407Z,97.78
2018-03-29T06:31:41.045Z,97.88
2018-03-29T06:32:06.474Z,97.78
2018-03-29T06:32:31.962Z,97.59
2018-03-29T06:32:57.483Z,97.5
2018-03-29T06:33:22.937Z,98.07
2018-03-29T06:33:48.446Z,97.88
2018-03-29T06:34:13.906Z,97.97
2018-03-29T06:34:39.441Z,97.78
2018-03-29T06:35:04.931Z,97.69
2018-03-29T06:35:30.513Z,97.5
2018-03-29T06:35:56.012Z,98.16
2018-03-29T06:36:21.721Z,97.78
2018-03-29T06:36:47.256Z,97.97
2018-03-29T06:37:12.882Z,97.97
2018-03-29T06:37:38.629Z,97.69
2018-03-29T06:38:04.367Z,97.59
2018-03-29T06:38:29.888Z,97.88
2018-03-29T06:38:55.545Z,98.07
2018-03-29T06:39:21.054Z,98.16
2018-03-29T06:39:46.598Z,97.69
2018-03-29T06:40:12.119Z,97.97
2018-03-29T06:40:37.709Z,97.02
2018-03-29T06:41:03.207Z,97.31
2018-03-29T06:41:28.715Z,97.12
2018-03-29T06:41:56.733Z,97.4
2018-03-29T06:42:22.270Z,97.12
2018-03-29T06:42:47.826Z,96.55
2018-03-29T06:43:13.402Z,96.73
2018-03-29T06:43:38.939Z,96.73
2018-03-29T06:44:04.424Z,96.92
2018-03-29T06:44:29.953Z,96.73
2018-03-29T06:44:55.425Z,96.83
2018-03-29T06:45:21.080Z,96.73
2018-03-29T06:45:46.628Z,96.55
2018-03-29T06:46:12.141Z,96.55
2018-03-29T06:46:37.693Z,96.92
2018-03-29T06:47:03.326Z,97.31
2018-03-29T06:47:29.181Z,97.31
2018-03-29T06:47:54.724Z,97.31
2018-03-29T06:48:20.271Z,97.31
2018-03-29T06:48:46.558Z,97.4
2018-03-29T06:49:12.422Z,97.02
2018-03-29T06:49:37.739Z,96.73
2018-03-29T06:50:03.338Z,96.83
2018-03-29T06:50:28.959Z,96.92
2018-03-29T06:50:54.481Z,96.64
2018-03-29T06:51:20.046Z,96.83
2018-03-29T06:51:45.679Z,96.55
2018-03-29T06:52:11.238Z,96.55
2018-03-29T06:52:36.782Z,96.36
2018-03-29T06:53:02.368Z,96.64
2018-03-29T06:53:27.795Z,96.64
2018-03-29T06:53:53.391Z,97.31
2018-03-29T06:54:18.979Z,97.5
2018-03-29T06:54:44.577Z,97.12
2018-03-29T06:55:10.088Z,96.83
2018-03-29T06:55:35.701Z,96.55
2018-03-29T06:56:01.366Z,97.12
2018-03-29T06:56:26.725Z,97.12
2018-03-29T06:56:52.227Z,97.21
2018-03-29T06:57:17.721Z,97.31
2018-03-29T06:57:43.201Z,97.21
2018-03-29T06:58:08.859Z,97.31
2018-03-29T06:58:34.382Z,97.31
2018-03-29T06:58:59.889Z,97.21
2018-03-29T06:59:26.096Z,97.59
2018-03-29T06:59:51.639Z,97.31
2018-03-29T07:00:17.164Z,96.92
2018-03-29T07:00:42.665Z,96.97
2018-03-29T07:01:08.285Z,96.88
2018-03-29T07:02:21.593Z,96.59
2018-03-29T07:02:50.212Z,96.69
2018-03-29T07:03:15.769Z,96.12
2018-03-29T07:03:41.524Z,96.22
2018-03-29T07:04:07.292Z,95.93
2018-03-29T07:04:32.778Z,96.03
2018-03-29T07:04:58.285Z,95.93
2018-03-29T07:05:23.884Z,95.65
2018-03-29T07:05:49.288Z,95.65
2018-03-29T07:06:14.805Z,95.84
2018-03-29T07:06:40.477Z,95.74
2018-03-29T07:07:06.032Z,95.84
2018-03-29T07:07:31.870Z,96.03
2018-03-29T07:07:57.439Z,95.74
2018-03-29T07:08:22.976Z,95.46
2018-03-29T07:08:48.588Z,96.31
2018-03-29T07:09:14.252Z,96.5
2018-03-29T07:09:40.129Z,96.31
2018-03-29T07:10:05.701Z,95.84
2018-03-29T07:10:31.189Z,95.46
2018-03-29T07:10:56.704Z,96.41
2018-03-29T07:11:22.245Z,95.93
2018-03-29T07:11:47.724Z,96.03
2018-03-29T07:12:13.190Z,95.65
2018-03-29T07:12:38.750Z,95.65
2018-03-29T07:13:04.220Z,95.84
2018-03-29T07:13:29.737Z,96.03
2018-03-29T07:13:55.429Z,95.46
2018-03-29T07:14:21.015Z,95.93
2018-03-29T07:14:47.069Z,96.41
2018-03-29T07:15:12.697Z,96.5
2018-03-29T07:15:38.355Z,96.41
2018-03-29T07:16:03.778Z,95.55
2018-03-29T07:16:29.345Z,95.46
2018-03-29T07:16:55.149Z,95.46
2018-03-29T07:17:20.786Z,96.41
2018-03-29T07:17:46.372Z,95.93
2018-03-29T07:18:12.722Z,95.65
2018-03-29T07:18:38.273Z,95.74
2018-03-29T07:19:03.755Z,95.84
2018-03-29T07:19:29.204Z,96.22
2018-03-29T07:19:54.678Z,95.55
2018-03-29T07:20:20.206Z,95.74
2018-03-29T07:20:45.720Z,96.41
2018-03-29T07:21:11.227Z,96.22
2018-03-29T07:21:36.734Z,96.31
2018-03-29T07:22:02.254Z,96.12
2018-03-29T07:22:27.850Z,96.22
2018-03-29T07:22:53.322Z,95.93
2018-03-29T07:23:18.777Z,95.84
2018-03-29T07:23:44.493Z,96.22
2018-03-29T07:24:10.001Z,95.65
2018-03-29T07:24:35.566Z,96.22
2018-03-29T07:25:01.144Z,96.41
2018-03-29T07:25:26.788Z,96.03
2018-03-29T07:25:52.415Z,96.22
2018-03-29T07:26:18.009Z,96.41
2018-03-29T07:26:43.523Z,96.22
2018-03-29T07:27:09.082Z,96.03
2018-03-29T07:27:34.711Z,96.22
2018-03-29T07:28:00.213Z,96.22
2018-03-29T07:28:25.759Z,96.22
2018-03-29T07:28:51.343Z,96.03
2018-03-29T07:29:16.874Z,95.74
2018-03-29T07:29:42.363Z,95.74
2018-03-29T07:30:07.849Z,95.27
2018-03-29T07:30:33.384Z,95.84
2018-03-29T07:30:58.862Z,96.03
2018-03-29T07:31:24.360Z,95.74
2018-03-29T07:31:49.986Z,95.65
2018-03-29T07:32:15.486Z,95.74
2018-03-29T07:32:40.983Z,95.84
2018-03-29T07:33:06.492Z,96.03
2018-03-29T07:33:32.019Z,95.27
2018-03-29T07:33:57.545Z,95.55
2018-03-29T07:34:23.039Z,95.93
2018-03-29T07:34:48.621Z,95.84
2018-03-29T07:35:14.185Z,95.65
2018-03-29T07:35:39.752Z,95.65
2018-03-29T07:36:05.286Z,95.74
2018-03-29T07:36:30.852Z,96.03
2018-03-29T07:36:56.275Z,95.55
2018-03-29T07:37:21.842Z,95.55
2018-03-29T07:37:47.398Z,95.65
2018-03-29T07:38:12.942Z,95.65
2018-03-29T07:38:38.534Z,95.07
2018-03-29T07:39:04.070Z,95.46
2018-03-29T07:39:29.568Z,95.07
2018-03-29T07:39:55.091Z,95.93
2018-03-29T07:40:20.641Z,95.74
2018-03-29T07:40:46.166Z,95.65
2018-03-29T07:41:11.629Z,95.74
2018-03-29T07:41:37.175Z,95.46
2018-03-29T07:42:02.655Z,96.03
2018-03-29T07:42:28.221Z,95.27
2018-03-29T07:42:53.753Z,95.46
2018-03-29T07:43:19.285Z,95.27
2018-03-29T07:43:44.774Z,95.27
2018-03-29T07:44:10.331Z,95.74
2018-03-29T07:44:35.864Z,96.03
2018-03-29T07:45:01.442Z,95.93
2018-03-29T07:45:26.939Z,95.74
2018-03-29T07:45:52.431Z,95.84
2018-03-29T07:46:17.991Z,95.74
2018-03-29T07:46:43.487Z,95.07
2018-03-29T07:47:08.986Z,95.36
2018-03-29T07:47:34.496Z,95.74
2018-03-29T07:48:00.013Z,95.84
2018-03-29T07:48:25.518Z,95.36
2018-03-29T07:48:51.014Z,95.55
2018-03-29T07:50:04.903Z,95.46
2018-03-29T07:50:30.397Z,95.55
2018-03-29T07:50:55.930Z,95.65
2018-03-29T07:51:21.489Z,95.46
2018-03-29T07:51:47.015Z,95.17
2018-03-29T07:52:12.512Z,95.17
2018-03-29T07:52:37.960Z,95.27
2018-03-29T07:53:03.521Z,95.17
2018-03-29T07:53:29.026Z,95.36
2018-03-29T07:53:54.628Z,95.46
2018-03-29T07:54:20.099Z,95.65
2018-03-29T07:54:45.596Z,95.46
2018-03-29T07:55:11.076Z,95.65
2018-03-29T07:55:36.615Z,94.7
2018-03-29T07:56:02.118Z,94.7
2018-03-29T07:56:27.685Z,94.79
2018-03-29T07:56:53.142Z,95.46
2018-03-29T07:57:18.666Z,95.55
2018-03-29T07:57:44.162Z,95.27
2018-03-29T07:58:09.678Z,95.27
2018-03-29T07:58:35.196Z,95.31
2018-03-29T07:59:00.804Z,94.74
2018-03-29T07:59:26.332Z,94.46
2018-03-29T07:59:51.859Z,94.84
2018-03-29T08:00:17.390Z,94.46
2018-03-29T08:00:42.897Z,94.18
2018-03-29T08:01:08.422Z,94.46
2018-03-29T08:01:33.901Z,94.56
2018-03-29T08:01:59.506Z,94.65
2018-03-29T08:02:24.981Z,94.74
2018-03-29T08:02:50.492Z,94.65
2018-03-29T08:03:15.988Z,94.65
2018-03-29T08:03:41.588Z,94.46
2018-03-29T08:04:07.113Z,94.46
2018-03-29T08:04:32.632Z,93.99
2018-03-29T08:04:58.131Z,93.99
2018-03-29T08:05:23.619Z,93.7
2018-03-29T08:05:49.174Z,94.08
2018-03-29T08:06:14.730Z,93.6
2018-03-29T08:06:40.149Z,93.8
2018-03-29T08:07:05.656Z,93.51
2018-03-29T08:07:31.150Z,93.04
2018-03-29T08:07:56.601Z,93.41
2018-03-29T08:08:22.097Z,93.41
2018-03-29T08:08:47.571Z,94.18
2018-03-29T08:09:13.087Z,93.51
2018-03-29T08:09:38.582Z,93.7
2018-03-29T08:10:04.079Z,93.41
2018-03-29T08:10:29.596Z,93.41
2018-03-29T08:10:55.088Z,93.6
2018-03-29T08:11:20.650Z,93.89
2018-03-29T08:11:46.129Z,93.99
2018-03-29T08:12:11.634Z,93.6
2018-03-29T08:12:37.135Z,93.6
2018-03-29T08:13:02.622Z,93.6
2018-03-29T08:13:28.097Z,93.23
2018-03-29T08:13:53.620Z,93.51
2018-03-29T08:14:19.124Z,93.8
2018-03-29T08:14:44.638Z,93.8
2018-03-29T08:15:10.139Z,93.8
2018-03-29T08:15:35.621Z,93.04
2018-03-29T08:16:01.124Z,93.41
2018-03-29T08:16:26.634Z,93.32
2018-03-29T08:16:52.111Z,92.75
2018-03-29T08:17:17.676Z,93.13
2018-03-29T08:17:43.189Z,93.41
2018-03-29T08:18:08.679Z,93.13
2018-03-29T08:18:34.240Z,93.23
2018-03-29T08:18:59.755Z,93.04
2018-03-29T08:19:25.269Z,93.23
2018-03-29T08:19:50.779Z,93.32
2018-03-29T08:20:16.285Z,93.41
2018-03-29T08:20:41.806Z,93.41
2018-03-29T08:21:07.302Z,93.23
2018-03-29T08:21:32.954Z,93.32
2018-03-29T08:21:58.514Z,92.75
2018-03-29T08:22:24.011Z,93.04
2018-03-29T08:22:49.514Z,92.66
2018-03-29T08:23:15.024Z,93.32
2018-03-29T08:23:40.545Z,93.6
2018-03-29T08:24:06.087Z,93.41
2018-03-29T08:24:31.585Z,93.32
2018-03-29T08:24:57.110Z,92.75
2018-03-29T08:25:22.752Z,93.32
2018-03-29T08:25:48.456Z,93.41
2018-03-29T08:26:14.022Z,93.13
2018-03-29T08:26:39.516Z,93.23
2018-03-29T08:27:05.002Z,93.04
2018-03-29T08:27:30.512Z,93.04
2018-03-29T08:27:56.010Z,92.37
2018-03-29T08:28:21.560Z,92.56
2018-03-29T08:28:47.069Z,92.66
2018-03-29T08:29:12.599Z,92.37
2018-03-29T08:29:38.203Z,92.56
2018-03-29T08:30:03.703Z,92.56
2018-03-29T08:30:29.253Z,92.66
2018-03-29T08:30:54.770Z,92.56
2018-03-29T08:31:20.257Z,92.66
2018-03-29T08:31:45.811Z,92.56
2018-03-29T08:32:11.299Z,92.56
2018-03-29T08:32:36.837Z,93.04
2018-03-29T08:33:02.404Z,93.04
2018-03-29T08:33:27.953Z,92.47
2018-03-29T08:33:53.549Z,92.75
2018-03-29T08:34:18.993Z,92.85
2018-03-29T08:34:44.583Z,92.28
2018-03-29T08:35:10.050Z,92.61
2018-03-29T08:35:35.536Z,91.8
2018-03-29T08:36:01.091Z,92.09
2018-03-29T08:36:26.596Z,92.61
2018-03-29T08:36:52.140Z,92.37
2018-03-29T08:37:17.670Z,92.47
2018-03-29T08:37:43.184Z,91.85
2018-03-29T08:38:08.713Z,91.99
2018-03-29T08:38:34.180Z,92.28
2018-03-29T08:38:59.675Z,92.47
2018-03-29T08:39:25.183Z,92.56
2018-03-29T08:39:50.721Z,92.28
2018-03-29T08:40:16.281Z,91.38
2018-03-29T08:40:41.766Z,91.75
2018-03-29T08:41:07.307Z,91.99
2018-03-29T08:41:32.843Z,91.8
2018-03-29T08:41:58.349Z,91.89
2018-03-29T08:42:56.892Z,91.71
2018-03-29T08:43:22.541Z,91.52
2018-03-29T08:43:48.021Z,91.8
2018-03-29T08:44:13.535Z,91.89
2018-03-29T08:44:39.102Z,92.09
2018-03-29T08:45:04.575Z,91.52
2018-03-29T08:45:30.087Z,91.8
2018-03-29T08:45:55.587Z,91.71
2018-03-29T08:46:21.105Z,92.28
2018-03-29T08:46:46.611Z,91.99
2018-03-29T08:47:12.099Z,91.61
2018-03-29T08:47:37.663Z,91.99
2018-03-29T08:48:03.260Z,91.99
2018-03-29T08:48:28.747Z,91.99
2018-03-29T08:48:54.265Z,91.89
2018-03-29T08:49:19.738Z,91.99
2018-03-29T08:49:45.297Z,91.89
2018-03-29T08:50:10.804Z,91.8
2018-03-29T08:50:36.358Z,91.33
2018-03-29T08:51:01.829Z,91.89
2018-03-29T08:51:27.389Z,91.89
2018-03-29T08:51:52.935Z,91.99
2018-03-29T08:52:18.440Z,91.33
2018-03-29T08:52:43.986Z,91.42
2018-03-29T08:53:09.492Z,91.52
2018-03-29T08:53:35.016Z,91.61
2018-03-29T08:54:00.675Z,91.8
2018-03-29T08:54:26.261Z,91.61
2018-03-29T08:54:51.782Z,91.89
2018-03-29T08:55:17.273Z,92.18
2018-03-29T08:55:42.779Z,91.89
2018-03-29T08:56:08.287Z,91.8
2018-03-29T08:56:33.798Z,91.89
2018-03-29T08:56:59.402Z,91.61
2018-03-29T08:57:24.928Z,91.71
2018-03-29T08:57:50.464Z,91.8
2018-03-29T08:58:15.975Z,91.89
2018-03-29T08:58:41.458Z,91.71
2018-03-29T08:59:06.985Z,92.18
2018-03-29T08:59:32.518Z,91.89
2018-03-29T08:59:58.041Z,92.18
2018-03-29T09:00:23.560Z,91.89
2018-03-29T09:00:49.070Z,91.56
2018-03-29T09:01:47.871Z,90.99
2018-03-29T09:02:13.411Z,90.05
2018-03-29T09:02:38.926Z,90.33
2018-03-29T09:03:04.464Z,90.33
2018-03-29T09:03:29.944Z,89.57
2018-03-29T09:03:55.551Z,89.57
2018-03-29T09:04:21.052Z,90.33
2018-03-29T09:04:46.544Z,90.23
2018-03-29T09:05:12.005Z,89.47
2018-03-29T09:05:37.545Z,89.67
2018-03-29T09:06:03.082Z,89.86
2018-03-29T09:06:28.540Z,90.14
2018-03-29T09:06:54.098Z,89.57
2018-03-29T09:07:20.099Z,89.86
2018-03-29T09:07:45.596Z,89.47
2018-03-29T09:08:11.134Z,89.57
2018-03-29T09:08:36.630Z,89.76
2018-03-29T09:09:02.136Z,88.43
2018-03-29T09:09:27.658Z,89
2018-03-29T09:09:53.126Z,89
2018-03-29T09:10:18.619Z,89.47
2018-03-29T09:10:44.119Z,89.28
2018-03-29T09:11:09.722Z,88.62
2018-03-29T09:11:35.200Z,89.23
2018-03-29T09:12:00.704Z,88.47
2018-03-29T09:12:26.245Z,89.04
2018-03-29T09:12:51.805Z,89.04
2018-03-29T09:13:17.277Z,89.04
2018-03-29T09:13:42.784Z,88.62
2018-03-29T09:14:08.276Z,89.23
2018-03-29T09:14:33.747Z,89.23
2018-03-29T09:14:59.380Z,89.04
2018-03-29T09:15:24.888Z,88.38
2018-03-29T09:15:50.372Z,88.85
2018-03-29T09:16:15.907Z,88.85
2018-03-29T09:16:41.394Z,88.28
2018-03-29T09:17:06.901Z,89.23
2018-03-29T09:17:32.548Z,88.76
2018-03-29T09:17:57.962Z,88
2018-03-29T09:18:23.579Z,88.76
2018-03-29T09:18:49.207Z,88.95
2018-03-29T09:19:14.653Z,88.47
2018-03-29T09:19:40.243Z,88.47
2018-03-29T09:20:05.755Z,88.67
2018-03-29T09:20:31.272Z,88.19
2018-03-29T09:20:56.806Z,88.57
2018-03-29T09:21:22.328Z,88
2018-03-29T09:21:47.825Z,87.81
2018-03-29T09:22:13.337Z,87.81
2018-03-29T09:22:38.850Z,88.09
2018-03-29T09:23:04.320Z,88.67
2018-03-29T09:23:29.834Z,88.76
2018-03-29T09:23:55.777Z,87.71
2018-03-29T09:24:21.805Z,87.81
2018-03-29T09:24:47.298Z,87.9
2018-03-29T09:25:12.800Z,86.76
2018-03-29T09:25:38.341Z,87.52
2018-03-29T09:26:03.903Z,87.05
2018-03-29T09:26:29.481Z,88.09
2018-03-29T09:26:55.023Z,87.71
2018-03-29T09:27:20.536Z,87.71
2018-03-29T09:27:46.042Z,87.81
2018-03-29T09:28:11.492Z,88
2018-03-29T09:28:37.053Z,87.9
2018-03-29T09:29:02.574Z,87.81
2018-03-29T09:29:28.151Z,87.52
2018-03-29T09:29:53.638Z,87.81
2018-03-29T09:30:19.098Z,87.9
2018-03-29T09:30:44.710Z,88
2018-03-29T09:31:10.189Z,87.71
2018-03-29T09:31:35.702Z,88.09
2018-03-29T09:32:01.215Z,87.9
2018-03-29T09:32:26.731Z,87.05
2018-03-29T09:32:52.266Z,87.43
2018-03-29T09:33:17.771Z,87.14
2018-03-29T09:33:43.360Z,88
2018-03-29T09:34:08.921Z,86.86
2018-03-29T09:34:34.449Z,86.29
2018-03-29T09:34:59.974Z,86.57
2018-03-29T09:35:25.460Z,86.29
2018-03-29T09:35:50.952Z,86.76
2018-03-29T09:36:16.503Z,86.67
2018-03-29T09:36:41.986Z,86
2018-03-29T09:37:07.481Z,86.86
2018-03-29T09:37:32.969Z,86.47
2018-03-29T09:37:58.495Z,86.95
2018-03-29T09:38:24.055Z,87.24
2018-03-29T09:38:49.534Z,86.86
2018-03-29T09:39:15.070Z,86.29
2018-03-29T09:39:40.652Z,86.57
2018-03-29T09:40:06.150Z,86.47
2018-03-29T09:40:31.603Z,86.57
2018-03-29T09:40:57.134Z,86.1
2018-03-29T09:41:22.614Z,86.29
2018-03-29T09:41:48.152Z,86.76
2018-03-29T09:42:13.738Z,86.86
2018-03-29T09:42:39.174Z,86.86
2018-03-29T09:43:04.718Z,87.34
2018-03-29T09:43:30.220Z,87.14
2018-03-29T09:43:55.770Z,87.05
2018-03-29T09:44:23.820Z,86.95
2018-03-29T09:44:50.736Z,86.86
2018-03-29T09:45:16.330Z,87.71
2018-03-29T09:45:41.916Z,87.43
2018-03-29T09:46:07.750Z,87.05
2018-03-29T09:46:33.429Z,86.95
2018-03-29T09:47:43.230Z,86.95
2018-03-29T09:48:08.724Z,86.86
2018-03-29T09:48:34.218Z,86.86
2018-03-29T09:48:59.708Z,86.95
2018-03-29T09:49:26.023Z,87.14
2018-03-29T09:49:51.562Z,86.67
2018-03-29T09:50:17.075Z,86.67
2018-03-29T09:50:42.589Z,86.47
2018-03-29T09:51:08.139Z,86.38
2018-03-29T09:51:33.644Z,86.47
2018-03-29T09:51:59.168Z,86.67
2018-03-29T09:52:24.677Z,86.57
2018-03-29T09:52:50.216Z,86.47
2018-03-29T09:53:15.704Z,86.47
2018-03-29T09:53:41.315Z,86.86
2018-03-29T09:54:06.754Z,86.95
2018-03-29T09:54:32.294Z,86.95
2018-03-29T09:54:58.420Z,87.05
2018-03-29T09:55:23.951Z,87.52
2018-03-29T09:55:49.472Z,87.52
2018-03-29T09:56:14.995Z,87.52
2018-03-29T09:56:40.572Z,87.14
2018-03-29T09:57:06.132Z,88
2018-03-29T09:57:31.678Z,87.81
2018-03-29T09:57:57.211Z,87.81
2018-03-29T09:58:22.817Z,87.9
2018-03-29T09:58:48.293Z,87.71
2018-03-29T09:59:13.805Z,88
2018-03-29T09:59:39.336Z,88
2018-03-29T10:00:04.791Z,87.9
2018-03-29T10:00:30.360Z,88.38
2018-03-29T10:00:55.862Z,88.85
2018-03-29T10:01:21.394Z,88.85
2018-03-29T10:01:46.889Z,88.8
2018-03-29T10:02:12.380Z,88.67
2018-03-29T10:02:37.933Z,88.52
2018-03-29T10:03:03.469Z,88.33
2018-03-29T10:03:29.362Z,88.42
2018-03-29T10:03:55.781Z,88.52
2018-03-29T10:04:21.271Z,88.04
2018-03-29T10:04:46.780Z,88.23
2018-03-29T10:05:55.564Z,87.95
2018-03-29T10:06:22.024Z,88.04
2018-03-29T10:06:47.530Z,88.04
2018-03-29T10:07:13.080Z,87.85
2018-03-29T10:07:38.593Z,87.57
2018-03-29T10:08:04.175Z,87.19
2018-03-29T10:08:29.728Z,86.9
2018-03-29T10:08:55.229Z,86.99
2018-03-29T10:09:20.762Z,87.19
2018-03-29T10:09:46.330Z,86.33
2018-03-29T10:10:11.864Z,86.28
2018-03-29T10:10:37.383Z,85.14
2018-03-29T10:11:02.913Z,85.28
2018-03-29T10:11:28.379Z,86.24
2018-03-29T10:11:54.070Z,85.86
2018-03-29T10:12:19.460Z,85.99
2018-03-29T10:12:44.929Z,86.18
2018-03-29T10:13:10.512Z,85.8
2018-03-29T10:13:36.024Z,86.09
2018-03-29T10:14:01.562Z,85.99
2018-03-29T10:14:27.050Z,85.99
2018-03-29T10:14:52.663Z,86.28
2018-03-29T10:15:18.139Z,86.18
2018-03-29T10:15:43.728Z,85.71
2018-03-29T10:16:09.246Z,85.52
2018-03-29T10:16:34.753Z,85.52
2018-03-29T10:17:00.260Z,85.71
2018-03-29T10:17:25.741Z,85.52
2018-03-29T10:17:51.264Z,85.71
2018-03-29T10:18:16.748Z,85.14
2018-03-29T10:18:43.252Z,84.95
2018-03-29T10:19:09.080Z,85.61
2018-03-29T10:19:35.210Z,85.04
2018-03-29T10:20:00.733Z,85.71
2018-03-29T10:20:26.441Z,84.66
2018-03-29T10:20:51.957Z,84.76
2018-03-29T10:21:17.509Z,84.47
2018-03-29T10:21:43.130Z,84.47
2018-03-29T10:22:09.509Z,85.24
2018-03-29T10:22:34.950Z,84.76
2018-03-29T10:23:00.512Z,84.66
2018-03-29T10:23:26.276Z,84.89
2018-03-29T10:23:52.094Z,84.85
2018-03-29T10:24:17.592Z,84.8
2018-03-29T10:24:43.053Z,84.52
2018-03-29T10:25:08.723Z,83.75
2018-03-29T10:25:34.228Z,83.85
2018-03-29T10:26:00.720Z,83.47
2018-03-29T10:26:26.296Z,83.37
2018-03-29T10:26:52.002Z,83.18
2018-03-29T10:27:17.709Z,83.28
2018-03-29T10:27:43.392Z,83.37
2018-03-29T10:28:08.996Z,82.61
2018-03-29T10:28:34.552Z,82.23
2018-03-29T10:29:00.096Z,81.95
2018-03-29T10:29:25.749Z,81.66
2018-03-29T10:29:51.422Z,81.85
2018-03-29T10:30:17.077Z,81.56
2018-03-29T10:30:42.644Z,81.37
2018-03-29T10:31:08.441Z,81.95
2018-03-29T10:31:33.955Z,81.85
2018-03-29T10:31:59.899Z,81.95
2018-03-29T10:32:25.481Z,82.04
2018-03-29T10:32:50.979Z,81.66
2018-03-29T10:33:16.538Z,82.23
2018-03-29T10:33:42.415Z,82.42
2018-03-29T10:34:08.091Z,81.85
2018-03-29T10:34:33.612Z,81.28
2018-03-29T10:34:59.376Z,81.28
2018-03-29T10:35:24.936Z,80.52
2018-03-29T10:35:50.645Z,80.71
2018-03-29T10:36:16.325Z,81.18
2018-03-29T10:36:42.160Z,81.28
2018-03-29T10:37:07.892Z,80.61
2018-03-29T10:37:33.543Z,80.9
2018-03-29T10:37:59.115Z,81.18
2018-03-29T10:38:24.685Z,81.56
2018-03-29T10:38:50.155Z,80.99
2018-03-29T10:39:16.242Z,81.28
2018-03-29T10:39:42.033Z,81.09
2018-03-29T10:40:07.745Z,81.09
2018-03-29T10:40:33.263Z,81.28
2018-03-29T10:40:59.105Z,80.9
2018-03-29T10:41:24.804Z,81.14
2018-03-29T10:41:50.348Z,81.62
2018-03-29T10:42:15.816Z,82.76
2018-03-29T10:43:09.299Z,81.33
2018-03-29T10:43:34.847Z,81.05
2018-03-29T10:44:00.640Z,81.24
2018-03-29T10:44:26.416Z,81.14
2018-03-29T10:44:52.084Z,81.24
2018-03-29T10:45:17.706Z,81.81
2018-03-29T10:45:43.272Z,81.62
2018-03-29T10:46:08.743Z,81.71
2018-03-29T10:46:34.377Z,81.9
2018-03-29T10:47:00.145Z,81.62
2018-03-29T10:47:28.711Z,81.52
2018-03-29T10:47:54.296Z,80.57
2018-03-29T10:48:19.801Z,80.57
2018-03-29T10:48:45.296Z,80.57
2018-03-29T10:49:10.927Z,81.05
2018-03-29T10:49:36.523Z,81.33
2018-03-29T10:50:02.048Z,81.81
2018-03-29T10:50:27.616Z,82.38
2018-03-29T10:50:53.155Z,82.38
2018-03-29T10:51:18.649Z,82
2018-03-29T10:51:44.171Z,82.38
2018-03-29T10:52:09.806Z,82.38
2018-03-29T10:52:35.346Z,82.76
2018-03-29T10:53:00.844Z,82.28
2018-03-29T10:53:26.333Z,82.57
2018-03-29T10:53:51.879Z,81.9
2018-03-29T10:54:17.377Z,81.9
2018-03-29T10:54:42.908Z,81.9
2018-03-29T10:55:08.470Z,82.28
2018-03-29T10:55:34.005Z,82.19
2018-03-29T10:55:59.474Z,81.71
2018-03-29T10:56:24.977Z,82.53
2018-03-29T10:56:50.489Z,82.81
2018-03-29T10:57:16.065Z,82.81
2018-03-29T10:57:41.605Z,83.23
2018-03-29T10:58:07.152Z,83.1
2018-03-29T10:58:32.656Z,83.95
2018-03-29T10:58:58.122Z,83.76
2018-03-29T10:59:23.682Z,83.39
2018-03-29T10:59:49.275Z,83.39
2018-03-29T11:00:14.873Z,83.86
2018-03-29T11:00:40.523Z,83.58
2018-03-29T11:01:06.047Z,83.48
2018-03-29T11:01:31.668Z,83.86
2018-03-29T11:01:57.254Z,83.39
2018-03-29T11:02:22.747Z,83.39
2018-03-29T11:02:48.294Z,83.76
2018-03-29T11:03:13.864Z,83
2018-03-29T11:03:39.455Z,83.48
2018-03-29T11:04:04.946Z,82.81
2018-03-29T11:04:30.448Z,83.76
2018-03-29T11:04:55.868Z,83.23
2018-03-29T11:05:21.485Z,82.67
2018-03-29T11:05:46.967Z,83.33
2018-03-29T11:06:12.578Z,84
2018-03-29T11:06:38.074Z,84.38
2018-03-29T11:07:03.623Z,84.66
2018-03-29T11:07:29.190Z,84.47
2018-03-29T11:07:54.722Z,84.19
2018-03-29T11:08:20.394Z,83.81
2018-03-29T11:08:45.833Z,84
2018-03-29T11:09:11.352Z,83.62
2018-03-29T11:09:36.912Z,83.47
2018-03-29T11:10:02.391Z,82.99
2018-03-29T11:10:27.862Z,83.47
2018-03-29T11:10:53.357Z,83.85
2018-03-29T11:11:18.856Z,83.09
2018-03-29T11:11:44.342Z,82.7
2018-03-29T11:12:09.881Z,82.9
2018-03-29T11:12:35.512Z,83.28
2018-03-29T11:13:01.034Z,83.47
2018-03-29T11:13:26.607Z,83.28
2018-03-29T11:13:52.137Z,83.28
2018-03-29T11:14:17.710Z,83.28
2018-03-29T11:14:43.325Z,83.28
2018-03-29T11:15:08.878Z,83.37
2018-03-29T11:15:34.427Z,82.99
2018-03-29T11:16:00.002Z,81.95
2018-03-29T11:16:25.616Z,81.85
2018-03-29T11:16:51.225Z,81.89
2018-03-29T11:17:16.658Z,81.95
2018-03-29T11:17:42.188Z,81.76
2018-03-29T11:18:07.683Z,81.79
2018-03-29T11:18:33.219Z,81.51
2018-03-29T11:18:58.685Z,81.13
2018-03-29T11:19:24.185Z,80.46
2018-03-29T11:19:49.832Z,79.51
2018-03-29T11:20:15.331Z,79.19
2018-03-29T11:20:40.831Z,79.41
2018-03-29T11:21:06.422Z,79.89
2018-03-29T11:21:32.302Z,78.94
2018-03-29T11:21:58.035Z,78.9
2018-03-29T11:22:23.699Z,79.57
2018-03-29T11:22:49.084Z,79.7
2018-03-29T11:23:14.719Z,79.7
2018-03-29T11:23:40.109Z,79.32
2018-03-29T11:24:05.597Z,79.41
2018-03-29T11:24:31.079Z,79.6
2018-03-29T11:24:56.685Z,79.03
2018-03-29T11:25:22.196Z,79.03
2018-03-29T11:25:47.693Z,78.75
2018-03-29T11:26:13.326Z,79.22
2018-03-29T11:26:38.810Z,79.6
2018-03-29T11:27:04.259Z,78.85
2018-03-29T11:27:29.787Z,78.56
2018-03-29T11:27:55.309Z,78.56
2018-03-29T11:28:20.929Z,78.65
2018-03-29T11:28:46.438Z,79.22
2018-03-29T11:29:11.932Z,79.13
2018-03-29T11:29:37.488Z,78.85
2018-03-29T11:30:03.082Z,78.56
2018-03-29T11:30:28.579Z,78.94
2018-03-29T11:30:54.128Z,78.46
2018-03-29T11:31:19.614Z,78.17
2018-03-29T11:31:45.149Z,78.08
2018-03-29T11:32:10.885Z,78.85
2018-03-29T11:32:36.688Z,78.65
2018-03-29T11:33:02.142Z,78.85
2018-03-29T11:33:27.745Z,79.22
2018-03-29T11:33:53.492Z,79.13
2018-03-29T11:34:19.186Z,79.32
2018-03-29T11:34:44.701Z,79.13
2018-03-29T11:35:10.374Z,78.85
2018-03-29T11:35:35.933Z,79.41
2018-03-29T11:36:01.512Z,79.32
2018-03-29T11:36:27.026Z,79.6
2018-03-29T11:36:52.619Z,78.85
2018-03-29T11:37:18.168Z,79.41
2018-03-29T11:37:43.745Z,79.6
2018-03-29T11:38:09.311Z,79.6
2018-03-29T11:38:34.817Z,79.6
2018-03-29T11:39:00.667Z,79.22
2018-03-29T11:39:26.165Z,79.41
2018-03-29T11:39:51.741Z,78.94
2018-03-29T11:40:17.193Z,78.08
2018-03-29T11:40:42.798Z,77.03
2018-03-29T11:41:08.357Z,76.65
2018-03-29T11:41:33.960Z,76.75
2018-03-29T11:41:59.359Z,76.56
2018-03-29T11:42:24.902Z,77.03
2018-03-29T11:42:50.572Z,76.88